Time;durP1;ratioP1;P1;durP2;ratioP2;P2;SDS_P1;SDS_P2;PMS_P1;PMS_P2;Temp;Humidity;BMP_temperature;BMP_pressure;BME280_temperature;BME280_humidity;BME280_pressure;Samples;Min_cycle;Max_cycle;Signal;HPM_P1;HPM_P2
2023/04/05 00:01:38;;;;;;;11.98;9.00;;;3.80;99.90;;;;;;4965649;28;20082;-72
2023/04/05 00:04:06;;;;;;;14.02;10.15;;;3.90;99.90;;;;;;4974575;28;20030;-72
2023/04/05 00:06:36;;;;;;;11.02;9.48;;;3.90;99.90;;;;;;4990082;28;20050;-73
2023/04/05 00:09:07;;;;;;;10.43;9.23;;;4.10;99.90;;;;;;4958177;28;20078;-72
2023/04/05 00:11:37;;;;;;;9.85;8.35;;;4.00;99.90;;;;;;4974499;28;20051;-73
2023/04/05 00:14:07;;;;;;;10.57;9.50;;;3.80;99.90;;;;;;4970256;28;20047;-75
2023/04/05 00:16:35;;;;;;;11.48;9.90;;;4.00;99.90;;;;;;4976147;28;20372;-75
2023/04/05 00:19:04;;;;;;;;;;;4.20;99.90;;;;;;4971283;28;20042;-70
2023/04/05 00:21:32;;;;;;;10.82;9.45;;;4.30;99.90;;;;;;4976960;28;19953;-71
2023/04/05 00:24:02;;;;;;;13.45;9.43;;;4.40;99.90;;;;;;4987296;28;20054;-71
2023/04/05 00:26:30;;;;;;;12.57;9.35;;;4.40;99.90;;;;;;4970822;28;20049;-73
2023/04/05 00:29:00;;;;;;;11.05;9.63;;;4.40;99.90;;;;;;4973974;28;20503;-72
2023/04/05 00:31:29;;;;;;;12.15;9.60;;;4.40;99.90;;;;;;4980838;28;20137;-72
2023/04/05 00:33:57;;;;;;;11.93;9.43;;;4.50;99.90;;;;;;4974288;28;20042;-72
2023/04/05 00:36:34;;;;;;;12.55;8.80;;;4.40;99.90;;;;;;4981919;28;20472;-74
2023/04/05 00:39:02;;;;;;;12.48;9.60;;;4.40;99.90;;;;;;4972245;28;20050;-71
2023/04/05 00:41:33;;;;;;;14.48;10.00;;;4.30;99.90;;;;;;4971608;28;20055;-72
2023/04/05 00:44:02;;;;;;;13.75;9.27;;;4.50;99.90;;;;;;4954805;28;20130;-74
2023/04/05 00:46:35;;;;;;;13.32;10.00;;;4.70;99.90;;;;;;4939291;28;20106;-73
2023/04/05 00:49:03;;;;;;;12.75;9.60;;;4.50;99.90;;;;;;4974621;28;20058;-72
2023/04/05 00:51:32;;;;;;;13.23;10.10;;;4.60;99.90;;;;;;4973763;28;20081;-72
2023/04/05 00:54:01;;;;;;;11.25;10.05;;;4.60;99.90;;;;;;4972875;28;20038;-73
2023/04/05 00:56:31;;;;;;;14.18;10.13;;;4.70;99.90;;;;;;4974202;28;20395;-74
2023/04/05 00:59:06;;;;;;;12.95;10.30;;;4.70;99.90;;;;;;5001412;28;20408;-71
2023/04/05 01:01:40;;;;;;;12.27;9.57;;;4.80;99.90;;;;;;4973948;28;20517;-71
2023/04/05 01:04:10;;;;;;;13.50;10.30;;;4.90;99.90;;;;;;4969508;28;20041;-71
2023/04/05 01:06:50;;;;;;;13.93;10.30;;;5.00;99.90;;;;;;4973019;28;20371;-74
2023/04/05 01:09:44;;;;;;;14.50;9.67;;;4.90;99.90;;;;;;4982030;28;20533;-72
2023/04/05 01:12:19;;;;;;;11.32;9.32;;;4.80;99.90;;;;;;5007509;23;20073;-70
2023/04/05 01:14:59;;;;;;;11.95;9.30;;;4.80;99.90;;;;;;4973795;28;20046;-73
2023/04/05 01:17:35;;;;;;;14.18;9.88;;;4.70;99.90;;;;;;4976776;28;20140;-73
2023/04/05 01:20:12;;;;;;;10.50;9.32;;;4.80;99.90;;;;;;4992984;28;20181;-71
2023/04/05 01:23:14;;;;;;;;;;;;;;;;;;;;;
2023/04/05 01:26:27;;;;;;;9.52;7.93;;;4.60;99.90;;;;;;5002392;28;20037;-71
2023/04/05 01:29:37;;;;;;;9.73;7.43;;;4.00;99.90;;;;;;4992668;28;20054;-71
2023/04/05 01:32:20;;;;;;;9.63;8.13;;;4.00;99.90;;;;;;4986096;28;20056;-74
2023/04/05 01:35:10;;;;;;;8.95;7.60;;;4.30;99.90;;;;;;4987169;28;20089;-75
2023/04/05 01:37:38;;;;;;;8.05;6.68;;;4.40;99.90;;;;;;5006360;28;20053;-71
2023/04/05 01:40:08;;;;;;;8.75;7.72;;;4.00;99.90;;;;;;4986927;28;20127;-70
2023/04/05 01:42:36;;;;;;;8.77;7.22;;;3.90;99.90;;;;;;4993405;28;20144;-70
2023/04/05 01:45:05;;;;;;;8.93;7.45;;;3.80;99.90;;;;;;4996066;28;20056;-72
2023/04/05 01:47:35;;;;;;;8.65;7.25;;;3.80;99.90;;;;;;4982289;28;20144;-71
2023/04/05 01:50:08;;;;;;;9.75;7.32;;;3.90;99.90;;;;;;4983611;28;20069;-73
2023/04/05 01:52:35;;;;;;;7.53;6.72;;;3.90;99.90;;;;;;4996426;28;20054;-72
2023/04/05 01:55:08;;;;;;;7.70;6.90;;;3.80;99.90;;;;;;4997426;28;20087;-73
2023/04/05 01:57:40;;;;;;;8.50;6.88;;;3.80;99.90;;;;;;4995220;28;20045;-74
2023/04/05 02:00:12;;;;;;;8.38;7.25;;;3.80;99.90;;;;;;5008410;28;20124;-74
2023/04/05 02:02:42;;;;;;;9.40;7.47;;;3.80;99.90;;;;;;4998889;28;20557;-74
2023/04/05 02:05:10;;;;;;;9.57;7.20;;;3.80;99.90;;;;;;4982815;28;20046;-74
2023/04/05 02:07:39;;;;;;;9.80;6.83;;;3.90;99.90;;;;;;4984203;28;20046;-73
2023/04/05 02:10:07;;;;;;;8.13;6.88;;;3.80;99.90;;;;;;4989699;28;20054;-72
2023/04/05 02:12:35;;;;;;;8.73;6.30;;;3.70;99.90;;;;;;4995727;28;20050;-71
2023/04/05 02:15:04;;;;;;;8.82;6.30;;;3.90;99.90;;;;;;4993188;28;20054;-73
2023/04/05 02:17:32;;;;;;;7.20;6.50;;;3.80;99.90;;;;;;5002406;28;20042;-73
2023/04/05 02:20:05;;;;;;;7.10;6.45;;;3.70;99.90;;;;;;5011255;28;20109;-71
2023/04/05 02:22:38;;;;;;;8.55;6.57;;;3.70;99.90;;;;;;4995217;28;20140;-74
2023/04/05 02:25:13;;;;;;;7.97;7.05;;;3.80;99.90;;;;;;5005930;28;20030;-72
2023/04/05 02:27:40;;;;;;;9.32;8.20;;;3.90;99.90;;;;;;5004964;28;20069;-71
2023/04/05 02:30:09;;;;;;;8.40;7.15;;;4.10;99.90;;;;;;4972429;28;20093;-74
2023/04/05 02:32:36;;;;;;;8.35;7.38;;;4.20;99.90;;;;;;4986688;28;20073;-74
2023/04/05 02:35:04;;;;;;;9.25;7.65;;;4.30;99.90;;;;;;4991614;28;20105;-71
2023/04/05 02:37:32;;;;;;;9.63;6.95;;;4.40;99.90;;;;;;4977754;28;20133;-73
2023/04/05 02:39:59;;;;;;;8.77;7.28;;;4.50;99.90;;;;;;4992468;28;20038;-72
2023/04/05 02:42:26;;;;;;;10.00;7.82;;;4.60;99.90;;;;;;4975387;28;20129;-73
2023/04/05 02:44:54;;;;;;;9.00;7.50;;;4.70;99.90;;;;;;4972313;28;20410;-72
2023/04/05 02:47:30;;;;;;;10.98;7.80;;;4.80;99.90;;;;;;4970231;28;20520;-71
2023/04/05 02:50:01;;;;;;;10.00;8.40;;;4.80;99.90;;;;;;4983724;28;20042;-73
2023/04/05 02:52:28;;;;;;;11.88;9.93;;;4.90;99.90;;;;;;4969270;28;20390;-71
2023/04/05 02:54:58;;;;;;;14.98;11.32;;;5.00;99.90;;;;;;4996826;28;20477;-72
2023/04/05 02:57:25;;;;;;;14.43;11.80;;;5.00;99.90;;;;;;4975819;28;20469;-73
2023/04/05 02:59:53;;;;;;;17.67;11.07;;;4.90;99.90;;;;;;4972101;28;20066;-72
2023/04/05 03:02:22;;;;;;;13.63;11.23;;;5.00;99.90;;;;;;4988177;28;20050;-71
2023/04/05 03:04:52;;;;;;;13.75;11.25;;;5.00;99.90;;;;;;4971652;28;20062;-72
2023/04/05 03:07:21;;;;;;;13.88;11.48;;;5.00;99.90;;;;;;5005867;28;20039;-72
2023/04/05 03:09:50;;;;;;;17.42;10.90;;;5.00;99.90;;;;;;4990479;28;20053;-72
2023/04/05 03:12:20;;;;;;;14.57;11.23;;;5.10;99.90;;;;;;5006134;28;20379;-73
2023/04/05 03:14:53;;;;;;;13.68;11.88;;;5.10;99.90;;;;;;4974717;28;20054;-70
2023/04/05 03:17:20;;;;;;;15.80;11.75;;;5.00;99.90;;;;;;4970948;28;20485;-72
2023/04/05 03:19:55;;;;;;;15.27;11.60;;;4.90;99.90;;;;;;4994172;28;20450;-71
2023/04/05 03:22:23;;;;;;;;;;;5.00;99.90;;;;;;4978389;28;20409;-72
2023/04/05 03:24:51;;;;;;;14.73;11.40;;;5.00;99.90;;;;;;4993506;28;19921;-71
2023/04/05 03:27:21;;;;;;;13.95;11.52;;;5.00;99.90;;;;;;4996452;28;20049;-72
2023/04/05 03:29:49;;;;;;;14.55;11.95;;;5.10;99.90;;;;;;4961139;28;20394;-73
2023/04/05 03:32:19;;;;;;;14.55;11.20;;;4.90;99.90;;;;;;4986507;28;20056;-72
2023/04/05 03:34:46;;;;;;;12.48;10.07;;;4.70;99.90;;;;;;4980386;28;20038;-72
2023/04/05 03:37:16;;;;;;;14.73;11.23;;;4.80;99.90;;;;;;4990970;28;20046;-73
2023/04/05 03:39:47;;;;;;;13.63;11.48;;;4.80;99.90;;;;;;4977669;28;20376;-74
2023/04/05 03:42:16;;;;;;;13.68;10.80;;;4.70;99.90;;;;;;4994770;28;20049;-73
2023/04/05 03:44:51;;;;;;;13.93;11.30;;;4.70;99.90;;;;;;4996969;28;20505;-74
2023/04/05 03:47:21;;;;;;;12.43;10.38;;;4.80;99.90;;;;;;4983413;28;20087;-71
2023/04/05 03:49:52;;;;;;;14.93;11.48;;;4.80;99.90;;;;;;4997103;28;20060;-74
2023/04/05 03:52:21;;;;;;;11.73;10.48;;;4.90;99.90;;;;;;5017188;28;20042;-73
2023/04/05 03:54:49;;;;;;;14.33;11.37;;;4.90;99.90;;;;;;4996309;28;20089;-74
2023/04/05 03:57:18;;;;;;;15.65;11.88;;;4.90;99.90;;;;;;4982204;28;20496;-73
2023/04/05 03:59:47;;;;;;;17.27;12.52;;;4.90;99.90;;;;;;4974005;28;20161;-70
2023/04/05 04:02:16;;;;;;;15.27;10.60;;;4.90;99.90;;;;;;4973780;28;20071;-72
2023/04/05 04:04:44;;;;;;;15.10;11.13;;;5.00;99.90;;;;;;4977415;28;20076;-71
2023/04/05 04:07:13;;;;;;;17.90;10.63;;;5.00;99.90;;;;;;4977145;28;20045;-71
2023/04/05 04:09:40;;;;;;;16.45;11.30;;;5.10;99.90;;;;;;4974226;28;20046;-74
2023/04/05 04:12:07;;;;;;;16.23;11.70;;;5.10;99.90;;;;;;4975553;28;20072;-76
2023/04/05 04:14:35;;;;;;;15.75;11.82;;;5.10;99.90;;;;;;5006070;28;20378;-73
2023/04/05 04:17:25;;;;;;;14.38;11.43;;;5.00;99.90;;;;;;5006167;28;20702;-72
2023/04/05 04:19:54;;;;;;;18.52;12.68;;;5.00;99.90;;;;;;4979115;28;20053;-72
2023/04/05 04:22:21;;;;;;;15.10;11.70;;;5.00;99.90;;;;;;5002750;28;20145;-74
2023/04/05 04:24:54;;;;;;;17.25;11.05;;;4.80;99.90;;;;;;5005567;28;20049;-72
2023/04/05 04:27:29;;;;;;;20.25;12.85;;;4.90;99.90;;;;;;4987170;28;20053;-73
2023/04/05 04:30:03;;;;;;;18.60;12.75;;;4.90;99.90;;;;;;4996056;28;20049;-76
2023/04/05 04:35:23;;;;;;;22.83;14.27;;;5.00;99.90;;;;;;5011984;23;20044;-73
2023/04/05 04:37:56;;;;;;;27.15;16.05;;;5.10;99.90;;;;;;4970980;28;20559;-71
2023/04/05 04:40:38;;;;;;;24.42;15.55;;;5.20;99.90;;;;;;4972005;28;20089;-75
2023/04/05 04:43:15;;;;;;;19.75;12.82;;;5.20;99.90;;;;;;5006266;28;20034;-72
2023/04/05 04:45:53;;;;;;;14.82;11.27;;;5.10;99.90;;;;;;5000016;28;20042;-72
2023/04/05 04:48:21;;;;;;;17.58;12.23;;;5.10;99.90;;;;;;4982707;28;20068;-71
2023/04/05 04:50:51;;;;;;;16.77;11.75;;;5.10;99.90;;;;;;4960397;28;20443;-71
2023/04/05 04:53:21;;;;;;;18.85;12.55;;;5.20;99.90;;;;;;4972028;28;20046;-70
2023/04/05 04:55:54;;;;;;;17.17;11.90;;;5.20;99.90;;;;;;5001927;28;20397;-73
2023/04/05 04:58:21;;;;;;;15.63;12.00;;;4.90;99.90;;;;;;4979493;28;20114;-74
2023/04/05 05:00:51;;;;;;;27.33;17.17;;;4.80;99.90;;;;;;4973059;28;20451;-72
2023/04/05 05:03:22;;;;;;;20.75;13.07;;;4.90;99.90;;;;;;4973246;28;20046;-74
2023/04/05 05:05:56;;;;;;;19.88;13.43;;;4.80;99.90;;;;;;4973425;28;20438;-71
2023/04/05 05:08:29;;;;;;;14.50;11.15;;;5.00;99.90;;;;;;4972792;28;20054;-72
2023/04/05 05:10:57;;;;;;;17.83;11.40;;;5.00;99.90;;;;;;4986040;28;20054;-72
2023/04/05 05:13:24;;;;;;;12.40;10.23;;;5.10;99.90;;;;;;4968695;28;20042;-74
2023/04/05 05:15:51;;;;;;;14.60;11.07;;;5.10;99.90;;;;;;4991016;28;20042;-73
2023/04/05 05:18:19;;;;;;;14.07;10.15;;;5.20;99.90;;;;;;4999749;28;20038;-73
2023/04/05 05:20:50;;;;;;;12.70;9.65;;;5.30;99.90;;;;;;4989952;28;20042;-75
2023/04/05 05:23:17;;;;;;;22.13;16.17;;;5.30;99.90;;;;;;4972525;28;20042;-75
2023/04/05 05:25:45;;;;;;;111.75;58.22;;;5.30;99.90;;;;;;4989486;28;20498;-74
2023/04/05 05:28:12;;;;;;;97.95;53.60;;;5.50;99.90;;;;;;4989635;28;20054;-76
2023/04/05 05:30:42;;;;;;;41.58;26.67;;;5.50;99.90;;;;;;4991942;28;20414;-75
2023/04/05 05:33:12;;;;;;;18.38;13.93;;;5.60;99.90;;;;;;4987380;28;20049;-76
2023/04/05 05:35:49;;;;;;;12.35;9.45;;;5.40;99.90;;;;;;4988230;28;20039;-74
2023/04/05 05:38:24;;;;;;;12.77;9.10;;;5.10;99.90;;;;;;4977762;28;20053;-73
2023/04/05 05:40:57;;;;;;;14.65;9.35;;;5.30;99.90;;;;;;4976922;28;20069;-72
2023/04/05 05:43:28;;;;;;;31.25;9.45;;;5.40;99.90;;;;;;4961639;28;20054;-76
2023/04/05 05:45:59;;;;;;;8.65;7.63;;;5.60;99.90;;;;;;4994425;28;20445;-71
2023/04/05 05:48:28;;;;;;;12.57;8.40;;;5.00;99.90;;;;;;4961940;28;20490;-74
2023/04/05 05:51:01;;;;;;;10.20;8.05;;;5.20;99.90;;;;;;4967871;28;20133;-72
2023/04/05 05:53:33;;;;;;;18.52;10.18;;;5.30;99.90;;;;;;4962267;28;20057;-75
2023/04/05 05:56:02;;;;;;;13.75;7.63;;;5.30;99.90;;;;;;4961766;28;20039;-75
2023/04/05 05:58:29;;;;;;;8.07;5.97;;;4.90;99.90;;;;;;4995318;28;20054;-71
2023/04/05 06:01:02;;;;;;;10.73;6.88;;;4.80;99.90;;;;;;4971492;28;20055;-75
2023/04/05 06:03:32;;;;;;;6.28;5.40;;;4.80;99.90;;;;;;4957455;28;20046;-73
2023/04/05 06:06:03;;;;;;;6.43;5.13;;;5.00;99.90;;;;;;4962069;28;20042;-74
2023/04/05 06:08:32;;;;;;;8.80;5.80;;;4.70;99.90;;;;;;4961541;28;20128;-73
2023/04/05 06:11:00;;;;;;;8.50;5.80;;;4.50;99.90;;;;;;4977378;28;20046;-72
2023/04/05 06:13:27;;;;;;;12.77;6.05;;;4.80;99.90;;;;;;4993552;28;20116;-75
2023/04/05 06:15:59;;;;;;;6.68;5.80;;;5.20;99.90;;;;;;4954079;28;20489;-77
2023/04/05 06:18:26;;;;;;;10.23;6.07;;;5.50;99.90;;;;;;4961610;28;20049;-73
2023/04/05 06:20:55;;;;;;;9.05;6.20;;;5.50;99.90;;;;;;4953984;28;20189;-75
2023/04/05 06:23:22;;;;;;;6.38;5.53;;;5.80;99.90;;;;;;4973382;28;20049;-75
2023/04/05 06:25:51;;;;;;;7.10;5.40;;;5.60;99.90;;;;;;4993078;28;20042;-75
2023/04/05 06:28:21;;;;;;;10.25;5.85;;;5.50;99.90;;;;;;4974142;28;20134;-73
2023/04/05 06:30:48;;;;;;;6.72;6.03;;;5.70;99.90;;;;;;4977576;28;20049;-75
2023/04/05 06:33:16;;;;;;;7.13;5.75;;;5.80;99.90;;;;;;4972357;28;20069;-75
2023/04/05 06:35:45;;;;;;;9.35;5.78;;;5.30;99.90;;;;;;4976734;28;20034;-77
2023/04/05 06:38:13;;;;;;;6.93;5.70;;;5.70;99.90;;;;;;4991400;28;20060;-75
2023/04/05 06:40:40;;;;;;;9.40;5.55;;;5.50;99.90;;;;;;4992983;28;20042;-73
2023/04/05 06:43:09;;;;;;;9.20;5.75;;;5.80;99.90;;;;;;4993143;28;20058;-73
2023/04/05 06:45:38;;;;;;;7.18;5.40;;;5.60;99.90;;;;;;4993032;28;20390;-75
2023/04/05 06:48:05;;;;;;;6.85;5.38;;;5.60;99.90;;;;;;4993555;28;20459;-74
2023/04/05 06:50:32;;;;;;;6.35;4.93;;;5.90;99.90;;;;;;4993870;28;20054;-74
2023/04/05 06:53:00;;;;;;;5.50;4.95;;;5.20;99.90;;;;;;4993590;28;20092;-76
2023/04/05 06:55:28;;;;;;;6.95;5.07;;;4.80;99.90;;;;;;4992638;28;20401;-76
2023/04/05 06:58:02;;;;;;;9.85;5.40;;;5.00;99.90;;;;;;4993994;28;20413;-76
2023/04/05 07:00:29;;;;;;;7.32;5.32;;;5.20;99.90;;;;;;4979428;28;20112;-77
2023/04/05 07:02:56;;;;;;;6.70;4.55;;;5.40;99.90;;;;;;4994029;28;20052;-75
2023/04/05 07:05:24;;;;;;;9.23;5.15;;;5.30;99.50;;;;;;5009164;28;20085;-75
2023/04/05 07:07:52;;;;;;;8.35;5.80;;;5.10;99.90;;;;;;4993727;28;20050;-75
2023/04/05 07:13:18;;;;;;;8.73;5.32;;;5.20;99.90;;;;;;5029119;28;20046;-76
2023/04/05 07:15:50;;;;;;;14.63;9.02;;;5.30;99.90;;;;;;5017158;28;20042;-77
2023/04/05 07:18:18;;;;;;;15.50;8.95;;;5.80;99.90;;;;;;4992540;28;20506;-75
2023/04/05 07:20:48;;;;;;;14.73;9.95;;;6.30;99.90;;;;;;5027694;28;20072;-75
2023/04/05 07:23:16;;;;;;;7.22;6.10;;;6.60;99.90;;;;;;5028235;28;20075;-77
2023/04/05 07:25:44;;;;;;;6.60;5.00;;;6.50;97.30;;;;;;5022794;28;20038;-73
2023/04/05 07:28:11;;;;;;;7.13;5.32;;;6.30;97.50;;;;;;5029921;28;20049;-74
2023/04/05 07:30:39;;;;;;;10.45;5.28;;;6.00;98.30;;;;;;5018114;28;20487;-75
2023/04/05 07:33:07;;;;;;;6.90;5.43;;;5.70;98.70;;;;;;5020942;28;20052;-73
2023/04/05 07:35:37;;;;;;;7.95;6.45;;;5.60;99.50;;;;;;4968994;28;20042;-74
2023/04/05 07:38:07;;;;;;;8.23;6.72;;;6.10;99.80;;;;;;4978322;28;20056;-74
2023/04/05 07:40:34;;;;;;;13.73;6.22;;;6.50;99.00;;;;;;4979168;28;20054;-74
2023/04/05 07:43:02;;;;;;;15.68;6.28;;;6.80;98.60;;;;;;4971644;28;20053;-76
2023/04/05 07:45:29;;;;;;;12.98;8.95;;;6.80;97.10;;;;;;4961161;28;20434;-77
2023/04/05 07:47:56;;;;;;;18.98;11.18;;;7.10;98.60;;;;;;4994031;28;20047;-73
2023/04/05 07:50:27;;;;;;;14.77;10.65;;;7.40;99.90;;;;;;4973140;28;20049;-76
2023/04/05 07:52:58;;;;;;;15.52;10.73;;;7.50;99.90;;;;;;4961051;28;20060;-75
2023/04/05 07:55:26;;;;;;;19.15;13.00;;;7.30;99.90;;;;;;4984721;28;20039;-74
2023/04/05 07:57:53;;;;;;;17.67;11.93;;;7.40;99.90;;;;;;4966654;28;20477;-75
2023/04/05 08:00:21;;;;;;;16.00;11.35;;;7.60;99.90;;;;;;4983163;28;20444;-75
2023/04/05 08:02:48;;;;;;;12.30;10.05;;;7.60;99.90;;;;;;4974793;28;20049;-76
2023/04/05 08:05:23;;;;;;;15.70;11.00;;;7.60;99.90;;;;;;4959740;28;20038;-73
2023/04/05 08:07:54;;;;;;;16.20;11.15;;;7.60;99.90;;;;;;4959702;28;20046;-77
2023/04/05 08:10:26;;;;;;;18.95;11.30;;;7.80;99.90;;;;;;4982525;28;20057;-75
2023/04/05 08:12:54;;;;;;;13.50;9.77;;;8.00;99.90;;;;;;4982094;28;20058;-81
2023/04/05 08:15:24;;;;;;;;;;;8.10;99.90;;;;;;5040768;23;20282;-74
2023/04/05 08:17:54;;;;;;;24.80;10.70;;;7.90;99.00;;;;;;4973979;28;19972;-76
2023/04/05 08:20:22;;;;;;;17.98;11.13;;;7.90;99.10;;;;;;4970284;28;20061;-75
2023/04/05 08:22:49;;;;;;;10.90;8.18;;;7.90;98.50;;;;;;4991715;28;20100;-73
2023/04/05 08:25:18;;;;;;;10.25;7.82;;;7.40;97.00;;;;;;4979200;28;20042;-76
2023/04/05 08:27:46;;;;;;;9.55;6.53;;;7.40;98.10;;;;;;4972104;28;20049;-74
2023/04/05 08:30:13;;;;;;;10.55;6.70;;;6.90;96.60;;;;;;5010812;28;20042;-71
2023/04/05 08:32:41;;;;;;;14.82;7.93;;;7.20;96.90;;;;;;4987731;28;20128;-72
2023/04/05 08:35:08;;;;;;;14.43;8.57;;;7.70;96.80;;;;;;4997430;28;20038;-76
2023/04/05 08:37:36;;;;;;;15.70;9.02;;;7.90;95.40;;;;;;4973807;28;20687;-76
2023/04/05 08:40:04;;;;;;;9.50;7.30;;;8.10;95.10;;;;;;4996304;28;20133;-74
2023/04/05 08:42:41;;;;;;;10.13;7.50;;;8.00;94.50;;;;;;4974881;28;20397;-75
2023/04/05 08:45:10;;;;;;;12.40;7.75;;;8.10;93.90;;;;;;4999147;28;20049;-73
2023/04/05 08:47:40;;;;;;;11.48;8.02;;;8.20;93.50;;;;;;4978559;28;20069;-77
2023/04/05 08:50:09;;;;;;;;;;;8.70;94.20;;;;;;4979314;28;20068;-74
2023/04/05 08:52:38;;;;;;;10.02;6.95;;;8.90;93.90;;;;;;4975186;28;19921;-71
2023/04/05 08:55:06;;;;;;;9.57;6.90;;;8.70;93.60;;;;;;4997549;28;20565;-73
2023/04/05 08:57:36;;;;;;;10.25;7.15;;;9.10;94.50;;;;;;5003575;28;20398;-75
2023/04/05 09:00:15;;;;;;;10.57;8.50;;;9.20;92.40;;;;;;5006993;28;20107;-72
2023/04/05 09:02:51;;;;;;;13.70;8.27;;;9.30;92.50;;;;;;4993422;28;20498;-73
2023/04/05 09:05:23;;;;;;;13.02;8.32;;;9.40;93.00;;;;;;5003726;28;20045;-74
2023/04/05 09:07:52;;;;;;;14.40;8.60;;;9.50;92.40;;;;;;4981884;28;20049;-74
2023/04/05 09:10:20;;;;;;;20.67;8.50;;;9.60;92.30;;;;;;4992696;28;20093;-77
2023/04/05 09:12:48;;;;;;;11.07;8.23;;;9.60;91.10;;;;;;4976719;28;20061;-74
2023/04/05 09:15:23;;;;;;;12.90;8.00;;;9.50;90.80;;;;;;5008620;28;20046;-76
2023/04/05 09:17:51;;;;;;;15.07;8.50;;;9.60;92.20;;;;;;5011538;28;20084;-74
2023/04/05 09:20:18;;;;;;;14.95;8.20;;;10.00;91.90;;;;;;4993791;28;20038;-74
2023/04/05 09:22:46;;;;;;;13.25;8.40;;;10.70;92.50;;;;;;5014830;28;20530;-77
2023/04/05 09:25:39;;;;;;;16.33;8.43;;;10.60;90.80;;;;;;5004311;28;20407;-73
2023/04/05 09:28:10;;;;;;;10.65;8.00;;;10.30;88.80;;;;;;4994564;28;20375;-77
2023/04/05 09:30:44;;;;;;;10.95;8.02;;;10.30;88.30;;;;;;4978800;28;20533;-75
2023/04/05 09:33:21;;;;;;;9.38;7.72;;;10.00;88.80;;;;;;4981816;28;20034;-74
2023/04/05 09:35:50;;;;;;;11.80;7.85;;;9.80;88.30;;;;;;4980961;28;20053;-76
2023/04/05 09:38:18;;;;;;;11.00;7.40;;;10.00;86.80;;;;;;4975887;23;20061;-76
2023/04/05 09:40:47;;;;;;;11.65;7.18;;;9.70;86.80;;;;;;4973428;28;20370;-76
2023/04/05 09:43:44;;;;;;;9.27;6.32;;;9.30;86.10;;;;;;4970793;28;20085;-74
2023/04/05 09:46:49;;;;;;;11.35;6.90;;;9.30;86.40;;;;;;4994135;28;20053;-75
2023/04/05 09:49:32;;;;;;;9.10;6.18;;;9.40;84.10;;;;;;4989671;28;20053;-74
2023/04/05 09:52:00;;;;;;;9.80;6.57;;;9.20;82.60;;;;;;5007349;28;20042;-71
2023/04/05 09:54:29;;;;;;;9.93;6.18;;;9.00;87.90;;;;;;4992431;28;20077;-73
2023/04/05 09:56:57;;;;;;;12.77;6.45;;;9.60;86.60;;;;;;4975333;28;20054;-77
2023/04/05 09:59:34;;;;;;;10.80;7.20;;;9.80;86.70;;;;;;4991142;28;20141;-74
2023/04/05 10:02:02;;;;;;;11.27;7.60;;;9.90;87.70;;;;;;4959422;28;20053;-74
2023/04/05 10:04:44;;;;;;;13.48;7.38;;;9.90;90.20;;;;;;4999527;23;20101;-72
2023/04/05 10:07:16;;;;;;;15.82;7.68;;;9.70;88.70;;;;;;4958785;28;20034;-74
2023/04/05 10:09:47;;;;;;;12.65;7.43;;;9.80;87.00;;;;;;4965798;28;20798;-75
2023/04/05 10:12:46;;;;;;;10.73;6.60;;;9.80;87.80;;;;;;4974080;28;20525;-74
2023/04/05 10:15:24;;;;;;;8.57;6.00;;;9.70;84.70;;;;;;4953732;28;20050;-76
2023/04/05 10:18:04;;;;;;;9.90;6.50;;;9.50;84.70;;;;;;4981087;28;20054;-74
2023/04/05 10:20:38;;;;;;;12.82;6.97;;;9.50;87.40;;;;;;4951106;28;20614;-75
2023/04/05 10:23:15;;;;;;;14.82;6.45;;;9.70;85.50;;;;;;4974739;28;20093;-76
2023/04/05 10:25:51;;;;;;;8.30;6.38;;;9.70;85.90;;;;;;4970621;23;20390;-72
2023/04/05 10:28:51;;;;;;;10.45;6.38;;;9.30;85.80;;;;;;4976954;28;20050;-74
2023/04/05 10:31:26;;;;;;;8.27;6.20;;;8.80;87.40;;;;;;4997812;28;20058;-74
2023/04/05 10:34:06;;;;;;;9.68;5.88;;;8.90;87.50;;;;;;4993250;28;20124;-75
2023/04/05 10:36:45;;;;;;;9.93;6.40;;;9.30;85.30;;;;;;4991293;28;20038;-73
2023/04/05 10:39:18;;;;;;;7.50;5.70;;;9.20;87.00;;;;;;4993413;28;20389;-73
2023/04/05 10:42:05;;;;;;;8.13;5.90;;;9.40;86.50;;;;;;4977696;28;20376;-73
2023/04/05 10:44:35;;;;;;;7.45;5.80;;;9.60;85.90;;;;;;4973056;28;20051;-74
2023/04/05 10:47:05;;;;;;;7.97;5.93;;;9.50;84.70;;;;;;4953325;28;20427;-74
2023/04/05 10:49:39;;;;;;;10.07;6.90;;;9.40;84.20;;;;;;4971678;28;20058;-75
2023/04/05 10:52:11;;;;;;;8.15;6.05;;;9.50;85.00;;;;;;4961367;28;20046;-76
2023/04/05 10:54:39;;;;;;;8.68;6.00;;;9.40;86.80;;;;;;4983852;28;20112;-71
2023/04/05 10:57:11;;;;;;;7.40;5.85;;;9.40;84.80;;;;;;4992987;28;20057;-74
2023/04/05 10:59:47;;;;;;;8.73;5.88;;;9.40;86.20;;;;;;4993433;28;20077;-73
2023/04/05 11:02:21;;;;;;;9.43;6.22;;;9.90;86.20;;;;;;4963922;28;20035;-74
2023/04/05 11:04:55;;;;;;;7.20;6.03;;;10.10;83.80;;;;;;4976468;28;20150;-74
2023/04/05 11:07:42;;;;;;;7.82;5.70;;;9.70;83.00;;;;;;4993600;28;20042;-75
2023/04/05 11:10:19;;;;;;;7.13;5.53;;;9.60;83.10;;;;;;4986340;28;20487;-75
2023/04/05 11:12:54;;;;;;;7.20;5.68;;;9.40;82.50;;;;;;4993559;28;20151;-75
2023/04/05 11:15:27;;;;;;;8.95;5.88;;;9.40;83.10;;;;;;4945705;28;20039;-73
2023/04/05 11:18:03;;;;;;;11.02;5.63;;;9.50;84.10;;;;;;4958865;28;20050;-76
2023/04/05 11:21:11;;;;;;;9.00;6.13;;;9.60;83.00;;;;;;4953508;28;20584;-75
2023/04/05 11:24:07;;;;;;;9.90;6.10;;;9.50;80.80;;;;;;4961767;28;20057;-75
2023/04/05 11:26:39;;;;;;;10.07;6.72;;;8.90;84.60;;;;;;4976578;28;20463;-74
2023/04/05 11:29:10;;;;;;;7.15;6.00;;;9.10;85.20;;;;;;4954195;28;20062;-75
2023/04/05 11:32:05;;;;;;;7.10;5.80;;;9.50;85.90;;;;;;4961449;28;20061;-74
2023/04/05 11:34:35;;;;;;;6.97;5.75;;;9.10;83.80;;;;;;4981521;23;20389;-75
2023/04/05 11:37:02;;;;;;;7.45;5.80;;;9.00;83.80;;;;;;4974791;28;20042;-75
2023/04/05 11:39:30;;;;;;;9.30;5.70;;;8.90;84.40;;;;;;4958155;28;20399;-76
2023/04/05 11:42:05;;;;;;;10.25;5.55;;;8.80;84.90;;;;;;4983774;28;20042;-74
2023/04/05 11:44:47;;;;;;;7.40;5.88;;;8.80;85.40;;;;;;4962446;28;20038;-76
2023/04/05 11:47:21;;;;;;;8.43;6.28;;;8.80;84.60;;;;;;4973241;28;20061;-75
2023/04/05 11:49:50;;;;;;;10.85;6.18;;;8.70;84.70;;;;;;4990496;28;20042;-76
2023/04/05 11:52:32;;;;;;;8.45;6.68;;;8.80;84.60;;;;;;4993667;28;20050;-76
2023/04/05 11:55:10;;;;;;;8.45;6.55;;;9.10;85.20;;;;;;4977140;28;20145;-77
2023/04/05 11:57:37;;;;;;;8.52;6.22;;;9.20;84.70;;;;;;4978520;28;20042;-77
2023/04/05 12:00:07;;;;;;;9.00;6.07;;;9.30;85.20;;;;;;4977200;28;20042;-76
2023/04/05 12:02:35;;;;;;;7.78;6.07;;;9.40;85.50;;;;;;4961223;28;20562;-79
2023/04/05 12:05:07;;;;;;;9.52;6.28;;;9.30;84.80;;;;;;4994187;28;20034;-79
2023/04/05 12:07:43;;;;;;;9.23;6.15;;;9.40;83.40;;;;;;4986930;28;20070;-77
2023/04/05 12:10:14;;;;;;;7.57;6.15;;;9.50;83.70;;;;;;4966657;28;20068;-73
2023/04/05 12:12:43;;;;;;;9.52;6.63;;;9.60;83.80;;;;;;4970086;28;20367;-76
2023/04/05 12:15:18;;;;;;;8.48;6.40;;;9.50;83.10;;;;;;4982866;28;20038;-76
2023/04/05 12:17:53;;;;;;;7.85;6.43;;;9.30;83.10;;;;;;4978456;28;20053;-75
2023/04/05 12:20:25;;;;;;;8.07;6.13;;;9.70;83.20;;;;;;4996015;28;20054;-76
2023/04/05 12:22:54;;;;;;;8.63;6.70;;;9.70;82.80;;;;;;4986662;28;20046;-76
2023/04/05 12:25:25;;;;;;;9.23;6.55;;;10.00;80.50;;;;;;5006902;28;20046;-76
2023/04/05 12:27:52;;;;;;;8.10;6.30;;;9.80;81.10;;;;;;4970903;28;20144;-76
2023/04/05 12:30:22;;;;;;;7.90;6.20;;;9.90;81.40;;;;;;4960780;28;20108;-76
2023/04/05 12:32:54;;;;;;;10.63;6.70;;;10.20;81.10;;;;;;4961625;28;20105;-76
2023/04/05 12:35:31;;;;;;;8.50;6.43;;;10.10;80.70;;;;;;4992947;28;20046;-77
2023/04/05 12:38:02;;;;;;;8.25;6.15;;;9.50;82.70;;;;;;4965823;28;20061;-75
2023/04/05 12:40:38;;;;;;;11.00;6.80;;;9.70;82.00;;;;;;4977726;28;20149;-77
2023/04/05 12:43:09;;;;;;;6.65;4.88;;;9.40;82.00;;;;;;4977049;23;20418;-77
2023/04/05 12:45:40;;;;;;;7.82;4.95;;;9.10;78.30;;;;;;4972545;28;20039;-75
2023/04/05 12:48:10;;;;;;;5.28;4.30;;;9.10;80.30;;;;;;4972723;28;20039;-75
2023/04/05 12:50:50;;;;;;;6.10;4.53;;;8.70;77.30;;;;;;4936608;29;20129;-76
2023/04/05 12:53:22;;;;;;;7.82;4.70;;;8.40;77.80;;;;;;4966428;28;20039;-75
2023/04/05 12:55:52;;;;;;;9.43;5.15;;;8.50;78.80;;;;;;4969176;28;20043;-76
2023/04/05 12:58:31;;;;;;;10.02;4.80;;;8.70;78.40;;;;;;4956345;28;20120;-75
2023/04/05 13:01:00;;;;;;;;;;;8.40;79.00;;;;;;4956559;28;20121;-77
2023/04/05 13:03:27;;;;;;;6.28;4.40;;;8.30;78.00;;;;;;4972401;28;19985;-76
2023/04/05 13:05:57;;;;;;;6.28;4.88;;;8.40;77.30;;;;;;4955389;28;20446;-75
2023/04/05 13:08:26;;;;;;;7.30;4.85;;;8.30;78.00;;;;;;4955762;28;20049;-75
2023/04/05 13:10:53;;;;;;;9.50;5.47;;;8.40;77.20;;;;;;4955954;28;20105;-76
2023/04/05 13:13:24;;;;;;;;;;;8.50;77.70;;;;;;4938442;28;20047;-76
2023/04/05 13:15:51;;;;;;;6.85;5.45;;;8.40;77.50;;;;;;4973825;28;20361;-74
2023/04/05 13:18:21;;;;;;;7.32;5.35;;;8.70;78.10;;;;;;4972017;28;20451;-75
2023/04/05 13:20:52;;;;;;;6.75;5.13;;;9.00;76.90;;;;;;4955699;28;20063;-76